createdAt,value
2023-05-13T00:00:56.314Z,21.6758
2023-05-13T00:01:58.046Z,21.6823
2023-05-13T00:02:59.871Z,21.6812
2023-05-13T00:04:01.528Z,21.6812
2023-05-13T00:05:03.284Z,21.6819
2023-05-13T00:06:04.997Z,21.6823
2023-05-13T00:07:06.706Z,21.6831
2023-05-13T00:08:08.468Z,21.6869
2023-05-13T00:09:10.179Z,21.6835
2023-05-13T00:10:11.909Z,21.6838
2023-05-13T00:11:13.683Z,21.6785
2023-05-13T00:12:15.404Z,21.6792
2023-05-13T00:13:17.135Z,21.6785
2023-05-13T00:14:18.912Z,21.6850
2023-05-13T00:15:20.600Z,21.6900
2023-05-13T00:16:22.380Z,21.6881
2023-05-13T00:17:24.068Z,21.6962
2023-05-13T00:18:25.812Z,21.6931
2023-05-13T00:19:27.537Z,21.6954
2023-05-13T00:20:29.257Z,21.6973
2023-05-13T00:21:30.987Z,21.6958
2023-05-13T00:22:32.699Z,21.6938
2023-05-13T00:23:34.437Z,21.6996
2023-05-13T00:24:36.192Z,21.6981
2023-05-13T00:25:37.906Z,21.7046
2023-05-13T00:26:39.619Z,21.7115
2023-05-13T00:27:41.387Z,21.7169
2023-05-13T00:28:43.102Z,21.7104
2023-05-13T00:29:44.840Z,21.7104
2023-05-13T00:30:46.571Z,21.7196
2023-05-13T00:31:48.438Z,21.7212
2023-05-13T00:32:50.135Z,21.7173
2023-05-13T00:33:51.865Z,21.7246
2023-05-13T00:34:53.590Z,21.7350
2023-05-13T00:35:55.308Z,21.7319
2023-05-13T00:36:57.038Z,21.7381
2023-05-13T00:37:58.793Z,21.7396
2023-05-13T00:39:00.509Z,21.7354
2023-05-13T00:40:02.241Z,21.7385
2023-05-13T00:41:03.996Z,21.7431
2023-05-13T00:42:05.697Z,21.7385
2023-05-13T00:43:07.427Z,21.7373
2023-05-13T00:44:09.176Z,21.7362
2023-05-13T00:45:10.913Z,21.7392
2023-05-13T00:46:12.636Z,21.7492
2023-05-13T00:47:14.542Z,21.7515
2023-05-13T00:48:16.105Z,21.7462
2023-05-13T00:49:17.811Z,21.7431
2023-05-13T00:50:19.685Z,21.7523
2023-05-13T00:51:21.302Z,21.7569
2023-05-13T00:52:23.016Z,21.7604
2023-05-13T00:53:24.751Z,21.7654
2023-05-13T00:54:26.509Z,21.7696
2023-05-13T00:55:28.233Z,21.7750
2023-05-13T00:56:29.987Z,21.7773
2023-05-13T00:57:31.683Z,21.7638
2023-05-13T00:58:33.450Z,21.7723
2023-05-13T00:59:35.182Z,21.7758
2023-05-13T01:00:36.883Z,21.7762
2023-05-13T01:01:38.708Z,21.7915
2023-05-13T01:02:40.492Z,21.7881
2023-05-13T01:03:42.101Z,21.7888
2023-05-13T01:04:43.808Z,21.7931
2023-05-13T01:05:45.572Z,21.7958
2023-05-13T01:06:47.275Z,21.7981
2023-05-13T01:07:49.017Z,21.8008
2023-05-13T01:08:50.761Z,21.8073
2023-05-13T01:09:52.494Z,21.8150
2023-05-13T01:10:54.207Z,21.8123
2023-05-13T01:11:55.965Z,21.8092
2023-05-13T01:12:57.700Z,21.8146
2023-05-13T01:13:59.401Z,21.8250
2023-05-13T01:15:01.167Z,21.8308
2023-05-13T01:16:02.866Z,21.8258
2023-05-13T01:17:04.750Z,21.8277
2023-05-13T01:18:06.486Z,21.8335
2023-05-13T01:19:08.090Z,21.8362
2023-05-13T01:20:09.815Z,21.8327
2023-05-13T01:21:11.578Z,21.8273
2023-05-13T01:22:13.300Z,21.8292
2023-05-13T01:23:15.021Z,21.8373
2023-05-13T01:24:16.801Z,21.8381
2023-05-13T01:25:18.501Z,21.8400
2023-05-13T01:26:20.221Z,21.8327
2023-05-13T01:27:21.948Z,21.8388
2023-05-13T01:28:23.664Z,21.8377
2023-05-13T01:29:25.396Z,21.8427
2023-05-13T01:30:27.145Z,21.8419
2023-05-13T01:31:28.930Z,21.8431
2023-05-13T01:32:30.619Z,21.8438
2023-05-13T01:33:32.346Z,21.8396
2023-05-13T01:34:34.050Z,21.8342
2023-05-13T01:35:35.792Z,21.8373
2023-05-13T01:36:37.528Z,21.8438
2023-05-13T01:37:39.252Z,21.8504
2023-05-13T01:38:40.997Z,21.8538
2023-05-13T01:39:42.715Z,21.8496
2023-05-13T01:40:44.451Z,21.8488
2023-05-13T01:41:46.207Z,21.8535
2023-05-13T01:42:47.923Z,21.8523
2023-05-13T01:43:49.646Z,21.8627
2023-05-13T01:44:51.404Z,21.8608
2023-05-13T01:45:53.137Z,21.8569
2023-05-13T01:46:54.921Z,21.8615
2023-05-13T01:47:56.616Z,21.8612
2023-05-13T01:48:58.324Z,21.8658
2023-05-13T01:50:00.041Z,21.8742
2023-05-13T01:51:01.803Z,21.8800
2023-05-13T01:52:03.519Z,21.8769
2023-05-13T01:53:05.221Z,21.8735
2023-05-13T01:54:06.960Z,21.8700
2023-05-13T01:55:08.705Z,21.8742
2023-05-13T01:56:10.426Z,21.8785
2023-05-13T01:57:12.146Z,21.8742
2023-05-13T01:58:13.894Z,21.8715
2023-05-13T01:59:15.599Z,21.8754
2023-05-13T02:00:17.338Z,21.8708
2023-05-13T02:01:20.455Z,21.8796
2023-05-13T02:02:20.864Z,21.8800
2023-05-13T02:03:23.385Z,21.8835
2023-05-13T02:04:24.297Z,21.8815
2023-05-13T02:05:26.014Z,21.8787
2023-05-13T02:07:53.716Z,21.8679
2023-05-13T02:08:55.468Z,21.8658
2023-05-13T02:09:57.207Z,21.8658
2023-05-13T02:10:58.918Z,21.8700
2023-05-13T02:12:00.681Z,21.8712
2023-05-13T02:13:02.426Z,21.8708
2023-05-13T02:14:04.115Z,21.8704
2023-05-13T02:15:05.880Z,21.8708
2023-05-13T02:16:07.714Z,21.8662
2023-05-13T02:17:09.317Z,21.8608
2023-05-13T02:18:11.095Z,21.8638
2023-05-13T02:19:12.854Z,21.8712
2023-05-13T02:20:14.535Z,21.8804
2023-05-13T02:21:16.267Z,21.8773
2023-05-13T02:22:18.082Z,21.8758
2023-05-13T02:23:19.719Z,21.8735
2023-05-13T02:24:21.459Z,21.8692
2023-05-13T02:25:23.212Z,21.8762
2023-05-13T02:26:24.909Z,21.8765
2023-05-13T02:27:26.666Z,21.8769
2023-05-13T02:28:28.390Z,21.8723
2023-05-13T02:29:30.108Z,21.8723
2023-05-13T02:30:31.846Z,21.8662
2023-05-13T02:31:33.630Z,21.8665
2023-05-13T02:32:35.327Z,21.8758
2023-05-13T02:33:37.045Z,21.8742
2023-05-13T02:34:38.804Z,21.8700
2023-05-13T02:35:40.532Z,21.8742
2023-05-13T02:36:47.093Z,21.8765
2023-05-13T02:37:45.619Z,21.8792
2023-05-13T02:38:45.707Z,21.8815
2023-05-13T02:39:47.453Z,21.8838
2023-05-13T02:40:49.175Z,21.8885
2023-05-13T02:41:51.004Z,21.8846
2023-05-13T02:42:52.630Z,21.8846
2023-05-13T02:43:54.360Z,21.8831
2023-05-13T02:44:56.113Z,21.8888
2023-05-13T02:45:57.876Z,21.8904
2023-05-13T02:46:59.576Z,21.8950
2023-05-13T02:48:01.369Z,21.8954
2023-05-13T02:49:03.048Z,21.8985
2023-05-13T02:50:04.752Z,21.8946
2023-05-13T02:51:06.513Z,21.8950
2023-05-13T02:52:08.269Z,21.8881
2023-05-13T02:53:09.953Z,21.8823
2023-05-13T02:54:11.711Z,21.8831
2023-05-13T02:55:13.511Z,21.8788
2023-05-13T02:56:15.152Z,21.8765
2023-05-13T02:57:16.889Z,21.8738
2023-05-13T02:58:18.754Z,21.8696
2023-05-13T02:59:20.353Z,21.8665
2023-05-13T03:00:22.317Z,21.8700
2023-05-13T03:01:23.915Z,21.8788
2023-05-13T03:02:25.622Z,21.8831
2023-05-13T03:03:27.375Z,21.8788
2023-05-13T03:04:29.047Z,21.8854
2023-05-13T03:05:30.800Z,21.8888
2023-05-13T03:06:32.499Z,21.8815
2023-05-13T03:07:34.270Z,21.8865
2023-05-13T03:08:35.984Z,21.8942
2023-05-13T03:09:37.692Z,21.8831
2023-05-13T03:10:39.450Z,21.8742
2023-05-13T03:11:41.188Z,21.8754
2023-05-13T03:12:42.912Z,21.8754
2023-05-13T03:13:44.653Z,21.8781
2023-05-13T03:14:46.387Z,21.8888
2023-05-13T03:15:48.130Z,21.8881
2023-05-13T03:16:49.856Z,21.8838
2023-05-13T03:17:51.640Z,21.8785
2023-05-13T03:18:53.430Z,21.8804
2023-05-13T03:19:55.068Z,21.8831
2023-05-13T03:20:56.773Z,21.8762
2023-05-13T03:21:58.583Z,21.8758
2023-05-13T03:23:00.259Z,21.8750
2023-05-13T03:24:02.001Z,21.8708
2023-05-13T03:25:03.711Z,21.8719
2023-05-13T03:26:05.440Z,21.8727
2023-05-13T03:27:07.191Z,21.8788
2023-05-13T03:28:08.942Z,21.8754
2023-05-13T03:29:10.643Z,21.8677
2023-05-13T03:30:12.401Z,21.8738
2023-05-13T03:31:14.208Z,21.8646
2023-05-13T03:32:15.840Z,21.8596
2023-05-13T03:33:17.603Z,21.8658
2023-05-13T03:34:19.433Z,21.8542
2023-05-13T03:35:21.046Z,21.8588
2023-05-13T03:36:22.786Z,21.8604
2023-05-13T03:37:24.537Z,21.8569
2023-05-13T03:38:26.250Z,21.8615
2023-05-13T03:39:27.986Z,21.8604
2023-05-13T03:40:29.743Z,21.8665
2023-05-13T03:41:31.470Z,21.8681
2023-05-13T03:42:33.195Z,21.8692
2023-05-13T03:43:34.950Z,21.8692
2023-05-13T03:44:36.665Z,21.8665
2023-05-13T03:45:38.405Z,21.8577
2023-05-13T03:46:40.195Z,21.8612
2023-05-13T03:47:41.929Z,21.8604
2023-05-13T03:48:43.610Z,21.8585
2023-05-13T03:49:45.358Z,21.8573
2023-05-13T03:50:47.098Z,21.8550
2023-05-13T03:51:48.831Z,21.8581
2023-05-13T03:52:50.572Z,21.8492
2023-05-13T03:53:52.301Z,21.8519
2023-05-13T03:54:54.017Z,21.8546
2023-05-13T03:55:55.771Z,21.8592
2023-05-13T03:56:57.510Z,21.8542
2023-05-13T03:57:59.220Z,21.8515
2023-05-13T03:59:00.968Z,21.8515
2023-05-13T04:00:02.693Z,21.8488
2023-05-13T04:01:04.445Z,21.8477
2023-05-13T04:02:06.207Z,21.8573
2023-05-13T04:03:07.949Z,21.8492
2023-05-13T04:04:09.672Z,21.8554
2023-05-13T04:05:11.449Z,21.8588
2023-05-13T04:06:13.114Z,21.8512
2023-05-13T04:07:14.860Z,21.8423
2023-05-13T04:08:16.600Z,21.8427
2023-05-13T04:09:18.342Z,21.8354
2023-05-13T04:10:20.427Z,21.8342
2023-05-13T04:11:21.798Z,21.8277
2023-05-13T04:12:23.531Z,21.8323
2023-05-13T04:13:25.292Z,21.8308
2023-05-13T04:14:27.028Z,21.8373
2023-05-13T04:15:28.763Z,21.8412
2023-05-13T04:16:30.538Z,21.8427
2023-05-13T04:17:32.261Z,21.8415
2023-05-13T04:18:34.009Z,21.8458
2023-05-13T04:19:35.684Z,21.8423
2023-05-13T04:20:37.428Z,21.8385
2023-05-13T04:21:39.187Z,21.8419
2023-05-13T04:22:40.934Z,21.8454
2023-05-13T04:23:42.662Z,21.8462
2023-05-13T04:24:44.384Z,21.8431
2023-05-13T04:25:46.113Z,21.8427
2023-05-13T04:26:47.846Z,21.8431
2023-05-13T04:27:49.601Z,21.8423
2023-05-13T04:28:51.341Z,21.8477
2023-05-13T04:29:53.050Z,21.8531
2023-05-13T04:30:54.783Z,21.8515
2023-05-13T04:31:56.592Z,21.8473
2023-05-13T04:32:58.352Z,21.8454
2023-05-13T04:34:00.041Z,21.8458
2023-05-13T04:35:01.721Z,21.8442
2023-05-13T04:36:03.457Z,21.8404
2023-05-13T04:37:05.181Z,21.8404
2023-05-13T04:38:06.968Z,21.8354
2023-05-13T04:39:08.677Z,21.8412
2023-05-13T04:40:10.408Z,21.8438
2023-05-13T04:41:12.116Z,21.8400
2023-05-13T04:42:13.852Z,21.8362
2023-05-13T04:43:15.586Z,21.8354
2023-05-13T04:44:17.351Z,21.8354
2023-05-13T04:45:19.123Z,21.8323
2023-05-13T04:46:20.874Z,21.8323
2023-05-13T04:47:22.577Z,21.8319
2023-05-13T04:48:24.271Z,21.8342
2023-05-13T04:49:25.983Z,21.8327
2023-05-13T04:50:27.730Z,21.8308
2023-05-13T04:51:29.446Z,21.8392
2023-05-13T04:52:31.212Z,21.8335
2023-05-13T04:53:32.953Z,21.8277
2023-05-13T04:54:34.668Z,21.8281
2023-05-13T04:55:36.394Z,21.8254
2023-05-13T04:56:38.124Z,21.8277
2023-05-13T04:57:39.885Z,21.8331
2023-05-13T04:58:41.617Z,21.8342
2023-05-13T04:59:43.355Z,21.8327
2023-05-13T05:00:45.067Z,21.8277
2023-05-13T05:01:46.822Z,21.8115
2023-05-13T05:02:48.628Z,21.8023
2023-05-13T05:03:50.382Z,21.8027
2023-05-13T05:04:52.023Z,21.8096
2023-05-13T05:05:53.743Z,21.8054
2023-05-13T05:06:55.497Z,21.8154
2023-05-13T05:07:57.199Z,21.8123
2023-05-13T05:08:58.955Z,21.8100
2023-05-13T05:10:00.691Z,21.8108
2023-05-13T05:11:02.399Z,21.8138
2023-05-13T05:12:04.150Z,21.8123
2023-05-13T05:13:05.875Z,21.8200
2023-05-13T05:14:07.623Z,21.8150
2023-05-13T05:15:09.367Z,21.8077
2023-05-13T05:16:11.091Z,21.8073
2023-05-13T05:17:12.824Z,21.7985
2023-05-13T05:18:14.619Z,21.8042
2023-05-13T05:19:16.328Z,21.8042
2023-05-13T05:20:18.024Z,21.7965
2023-05-13T05:21:19.760Z,21.8015
2023-05-13T05:22:21.480Z,21.8027
2023-05-13T05:23:23.218Z,21.8038
2023-05-13T05:24:24.946Z,21.8042
2023-05-13T05:25:26.701Z,21.8027
2023-05-13T05:26:28.424Z,21.7988
2023-05-13T05:27:30.138Z,21.8015
2023-05-13T05:28:31.869Z,21.8115
2023-05-13T05:29:33.600Z,21.8019
2023-05-13T05:30:35.385Z,21.7962
2023-05-13T05:31:37.099Z,21.7908
2023-05-13T05:32:38.831Z,21.7958
2023-05-13T05:33:40.553Z,21.7946
2023-05-13T05:34:42.272Z,21.7873
2023-05-13T05:35:44.009Z,21.7858
2023-05-13T05:36:45.785Z,21.7862
2023-05-13T05:37:47.489Z,21.7777
2023-05-13T05:38:49.209Z,21.7727
2023-05-13T05:39:50.960Z,21.7731
2023-05-13T05:40:52.680Z,21.7731
2023-05-13T05:41:54.429Z,21.7804
2023-05-13T05:42:56.169Z,21.7731
2023-05-13T05:43:57.896Z,21.7650
2023-05-13T05:44:59.609Z,21.7635
2023-05-13T05:46:01.393Z,21.7612
2023-05-13T05:47:03.081Z,21.7638
2023-05-13T05:48:04.896Z,21.7588
2023-05-13T05:49:06.548Z,21.7654
2023-05-13T05:50:08.284Z,21.7738
2023-05-13T05:51:10.035Z,21.7677
2023-05-13T05:52:11.762Z,21.7665
2023-05-13T05:53:13.472Z,21.7704
2023-05-13T05:54:15.228Z,21.7665
2023-05-13T05:55:16.952Z,21.7735
2023-05-13T05:56:18.688Z,21.7758
2023-05-13T05:57:20.441Z,21.7735
2023-05-13T05:58:22.705Z,21.7777
2023-05-13T05:59:23.882Z,21.7662
2023-05-13T06:00:25.634Z,21.7738
2023-05-13T06:01:27.352Z,21.7777
2023-05-13T06:02:29.188Z,21.7831
2023-05-13T06:03:30.895Z,21.7812
2023-05-13T06:04:32.643Z,21.7688
2023-05-13T06:05:34.302Z,21.7712
2023-05-13T06:06:36.142Z,21.7754
2023-05-13T06:07:37.758Z,21.7700
2023-05-13T06:08:39.511Z,21.7731
2023-05-13T06:09:41.344Z,21.7708
2023-05-13T06:10:43.085Z,21.7623
2023-05-13T06:11:44.813Z,21.7596
2023-05-13T06:12:46.520Z,21.7665
2023-05-13T06:13:48.260Z,21.7673
2023-05-13T06:14:49.984Z,21.7723
2023-05-13T06:15:51.823Z,21.7777
2023-05-13T06:16:54.973Z,21.7765
2023-05-13T06:17:55.231Z,21.7681
2023-05-13T06:18:56.995Z,21.7681
2023-05-13T06:19:58.678Z,21.7769
2023-05-13T06:21:00.399Z,21.7750
2023-05-13T06:22:04.045Z,21.7796
2023-05-13T06:23:03.894Z,21.7804
2023-05-13T06:24:05.596Z,21.7727
2023-05-13T06:25:07.341Z,21.7735
2023-05-13T06:26:09.088Z,21.7712
2023-05-13T06:27:10.839Z,21.7773
2023-05-13T06:28:12.538Z,21.7719
2023-05-13T06:29:14.282Z,21.7658
2023-05-13T06:30:16.025Z,21.7727
2023-05-13T06:31:17.797Z,21.7704
2023-05-13T06:32:19.467Z,21.7646
2023-05-13T06:33:21.246Z,21.7577
2023-05-13T06:34:22.938Z,21.7577
2023-05-13T06:35:24.690Z,21.7523
2023-05-13T06:36:26.439Z,21.7585
2023-05-13T06:37:28.185Z,21.7612
2023-05-13T06:38:29.892Z,21.7527
2023-05-13T06:39:31.630Z,21.7438
2023-05-13T06:40:33.359Z,21.7512
2023-05-13T06:41:35.077Z,21.7585
2023-05-13T06:42:36.830Z,21.7612
2023-05-13T06:43:38.542Z,21.7654
2023-05-13T06:44:40.272Z,21.7623
2023-05-13T06:45:42.030Z,21.7712
2023-05-13T06:46:43.752Z,21.7604
2023-05-13T06:47:45.532Z,21.7481
2023-05-13T06:48:47.246Z,21.7523
2023-05-13T06:49:48.943Z,21.7577
2023-05-13T06:50:50.702Z,21.7558
2023-05-13T06:51:52.440Z,21.7485
2023-05-13T06:52:54.171Z,21.7296
2023-05-13T06:53:55.897Z,21.7338
2023-05-13T06:54:57.642Z,21.7400
2023-05-13T06:55:59.374Z,21.7488
2023-05-13T06:57:01.096Z,21.7492
2023-05-13T06:58:02.818Z,21.7569
2023-05-13T06:59:04.557Z,21.7600
2023-05-13T07:00:06.304Z,21.7596
2023-05-13T07:01:08.081Z,21.7619
2023-05-13T07:02:09.782Z,21.7612
2023-05-13T07:03:11.495Z,21.7565
2023-05-13T07:04:13.254Z,21.7635
2023-05-13T07:05:14.987Z,21.7615
2023-05-13T07:06:16.750Z,21.7615
2023-05-13T07:07:18.444Z,21.7592
2023-05-13T07:08:20.194Z,21.7519
2023-05-13T07:09:21.922Z,21.7519
2023-05-13T07:10:23.874Z,21.7565
2023-05-13T07:11:25.388Z,21.7535
2023-05-13T07:12:27.138Z,21.7562
2023-05-13T07:13:28.840Z,21.7592
2023-05-13T07:14:30.576Z,21.7538
2023-05-13T07:15:32.326Z,21.7538
2023-05-13T07:16:34.040Z,21.7508
2023-05-13T07:17:35.908Z,21.7515
2023-05-13T07:18:37.566Z,21.7481
2023-05-13T07:19:39.229Z,21.7523
2023-05-13T07:20:40.964Z,21.7646
2023-05-13T07:21:42.728Z,21.7642
2023-05-13T07:22:44.433Z,21.7642
2023-05-13T07:23:46.170Z,21.7704
2023-05-13T07:24:47.897Z,21.7773
2023-05-13T07:25:49.622Z,21.7808
2023-05-13T07:26:51.374Z,21.7946
2023-05-13T07:27:53.084Z,21.8062
2023-05-13T07:28:54.812Z,21.8104
2023-05-13T07:29:56.571Z,21.8119
2023-05-13T07:30:58.345Z,21.8165
2023-05-13T07:32:00.012Z,21.8258
2023-05-13T07:33:01.845Z,21.8323
2023-05-13T07:34:03.490Z,21.8331
2023-05-13T07:35:05.206Z,21.8365
2023-05-13T07:36:06.941Z,21.8354
2023-05-13T07:37:08.674Z,21.8515
2023-05-13T07:38:10.428Z,21.8627
2023-05-13T07:39:12.137Z,21.8615
2023-05-13T07:40:13.871Z,21.8631
2023-05-13T07:41:15.636Z,21.8635
2023-05-13T07:42:17.369Z,21.8692
2023-05-13T07:43:19.094Z,21.8746
2023-05-13T07:44:20.806Z,21.8788
2023-05-13T07:45:22.760Z,21.8858
2023-05-13T07:46:24.325Z,21.8892
2023-05-13T07:47:26.044Z,21.8977
2023-05-13T07:48:27.757Z,21.9042
2023-05-13T07:49:29.499Z,21.9142
2023-05-13T07:50:31.222Z,21.9188
2023-05-13T07:51:32.937Z,21.9208
2023-05-13T07:52:34.701Z,21.9238
2023-05-13T07:53:36.447Z,21.9212
2023-05-13T07:54:38.130Z,21.9273
2023-05-13T07:55:39.887Z,21.9342
2023-05-13T07:56:41.616Z,21.9396
2023-05-13T07:57:43.331Z,21.9415
2023-05-13T07:58:45.059Z,21.9592
2023-05-13T07:59:46.816Z,21.9635
2023-05-13T08:00:48.528Z,21.9669
2023-05-13T08:01:50.260Z,21.9781
2023-05-13T08:02:52.191Z,21.9819
2023-05-13T08:03:53.845Z,21.9896
2023-05-13T08:04:55.513Z,21.9962
2023-05-13T08:05:57.203Z,22.0019
2023-05-13T08:06:58.911Z,22.0158
2023-05-13T08:08:00.650Z,22.0254
2023-05-13T08:09:02.404Z,22.0315
2023-05-13T08:10:04.129Z,22.0281
2023-05-13T08:11:05.852Z,22.0358
2023-05-13T08:12:07.595Z,22.0427
2023-05-13T08:13:09.340Z,22.0400
2023-05-13T08:14:11.077Z,22.0446
2023-05-13T08:15:12.784Z,22.0527
2023-05-13T08:16:14.568Z,22.0558
2023-05-13T08:17:16.246Z,22.0442
2023-05-13T08:18:17.987Z,22.0512
2023-05-13T08:19:19.805Z,22.0604
2023-05-13T08:20:21.436Z,22.0696
2023-05-13T08:21:23.174Z,22.0627
2023-05-13T08:22:24.928Z,22.0700
2023-05-13T08:23:40.408Z,22.0746
2023-05-13T08:24:28.384Z,22.0792
2023-05-13T08:25:30.126Z,22.0823
2023-05-13T08:26:31.853Z,22.0819
2023-05-13T08:27:33.563Z,22.0842
2023-05-13T08:28:35.330Z,22.0862
2023-05-13T08:29:37.053Z,22.0892
2023-05-13T08:30:38.759Z,22.0873
2023-05-13T08:31:40.556Z,22.0908
2023-05-13T08:32:42.289Z,22.0912
2023-05-13T08:33:43.961Z,22.1027
2023-05-13T08:34:45.729Z,22.1023
2023-05-13T08:35:47.448Z,22.1088
2023-05-13T08:36:49.170Z,22.1096
2023-05-13T08:37:50.890Z,22.1127
2023-05-13T08:38:52.641Z,22.1169
2023-05-13T08:39:54.354Z,22.1212
2023-05-13T08:40:56.100Z,22.1212
2023-05-13T08:41:57.854Z,22.1181
2023-05-13T08:42:59.560Z,22.1173
2023-05-13T08:44:01.299Z,22.1246
2023-05-13T08:45:03.048Z,22.1258
2023-05-13T08:46:04.807Z,22.1296
2023-05-13T08:47:06.506Z,22.1300
2023-05-13T08:48:08.284Z,22.1281
2023-05-13T08:49:10.004Z,22.1327
2023-05-13T08:50:11.732Z,22.1338
2023-05-13T08:51:13.435Z,22.1350
2023-05-13T08:52:15.202Z,22.1373
2023-05-13T08:53:16.936Z,22.1385
2023-05-13T08:54:18.671Z,22.1342
2023-05-13T08:55:20.521Z,22.1304
2023-05-13T08:56:22.145Z,22.1338
2023-05-13T08:57:23.875Z,22.1335
2023-05-13T08:58:25.607Z,22.1369
2023-05-13T08:59:27.352Z,22.1396
2023-05-13T09:00:29.080Z,22.1427
2023-05-13T09:01:30.831Z,22.1408
2023-05-13T09:02:32.585Z,22.1412
2023-05-13T09:03:34.278Z,22.1423
2023-05-13T09:04:36.038Z,22.1458
2023-05-13T09:05:38.917Z,22.1462
2023-05-13T09:06:39.461Z,22.1492
2023-05-13T09:07:41.193Z,22.1508
2023-05-13T09:08:42.956Z,22.1550
2023-05-13T09:09:44.675Z,22.1515
2023-05-13T09:10:46.395Z,22.1573
2023-05-13T09:11:48.152Z,22.1577
2023-05-13T09:12:49.863Z,22.1604
2023-05-13T09:13:51.665Z,22.1646
2023-05-13T09:14:53.323Z,22.1719
2023-05-13T09:15:55.163Z,22.1777
2023-05-13T09:16:56.813Z,22.1788
2023-05-13T09:17:58.643Z,22.1750
2023-05-13T09:19:00.376Z,22.1719
2023-05-13T09:20:02.082Z,22.1727
2023-05-13T09:21:03.735Z,22.1723
2023-05-13T09:22:05.463Z,22.1735
2023-05-13T09:23:07.245Z,22.1792
2023-05-13T09:24:10.931Z,22.1762
2023-05-13T09:25:10.669Z,22.1796
2023-05-13T09:26:12.418Z,22.1869
2023-05-13T09:27:14.152Z,22.1850
2023-05-13T09:28:15.877Z,22.1896
2023-05-13T09:29:17.685Z,22.1850
2023-05-13T09:30:19.341Z,22.1912
2023-05-13T09:31:21.106Z,22.1931
2023-05-13T09:32:22.810Z,22.1962
2023-05-13T09:33:24.518Z,22.1919
2023-05-13T09:34:26.317Z,22.1973
2023-05-13T09:35:28.005Z,22.2031
2023-05-13T09:36:29.722Z,22.1981
2023-05-13T09:37:31.485Z,22.2000
2023-05-13T09:38:33.218Z,22.2069
2023-05-13T09:39:34.936Z,22.2088
2023-05-13T09:40:36.684Z,22.2108
2023-05-13T09:41:38.383Z,22.2100
2023-05-13T09:42:40.143Z,22.2058
2023-05-13T09:43:41.882Z,22.2115
2023-05-13T09:44:43.594Z,22.2112
2023-05-13T09:45:45.327Z,22.2088
2023-05-13T09:46:47.114Z,22.2108
2023-05-13T09:47:48.851Z,22.2108
2023-05-13T09:48:50.529Z,22.2188
2023-05-13T09:49:52.285Z,22.2169
2023-05-13T09:50:54.033Z,22.2192
2023-05-13T09:51:55.735Z,22.2196
2023-05-13T09:52:57.474Z,22.2196
2023-05-13T09:53:59.192Z,22.2242
2023-05-13T09:55:00.953Z,22.2265
2023-05-13T09:56:02.671Z,22.2238
2023-05-13T09:57:04.399Z,22.2296
2023-05-13T09:58:06.164Z,22.2281
2023-05-13T09:59:07.949Z,22.2304
2023-05-13T10:00:17.845Z,22.2315
2023-05-13T10:01:11.401Z,22.2392
2023-05-13T10:02:13.088Z,22.2408
2023-05-13T10:03:14.884Z,22.2331
2023-05-13T10:04:16.725Z,22.2354
2023-05-13T10:05:18.299Z,22.2200
2023-05-13T10:06:19.996Z,22.2242
2023-05-13T10:07:21.732Z,22.2392
2023-05-13T10:08:23.492Z,22.2446
2023-05-13T10:09:25.202Z,22.2519
2023-05-13T10:10:26.942Z,22.2512
2023-05-13T10:11:28.702Z,22.2600
2023-05-13T10:12:30.494Z,22.2642
2023-05-13T10:13:32.284Z,22.2658
2023-05-13T10:14:33.994Z,22.2712
2023-05-13T10:15:35.743Z,22.2765
2023-05-13T10:16:37.456Z,22.2815
2023-05-13T10:17:39.215Z,22.2788
2023-05-13T10:18:40.968Z,22.2846
2023-05-13T10:19:42.641Z,22.2792
2023-05-13T10:20:44.420Z,22.2862
2023-05-13T10:21:46.133Z,22.2846
2023-05-13T10:22:47.836Z,22.2842
2023-05-13T10:23:49.579Z,22.2865
2023-05-13T10:24:51.329Z,22.2912
2023-05-13T10:25:53.054Z,22.2904
2023-05-13T10:26:54.770Z,22.2888
2023-05-13T10:27:56.519Z,22.2881
2023-05-13T10:28:58.274Z,22.2885
2023-05-13T10:30:02.401Z,22.2865
2023-05-13T10:31:01.691Z,22.2954
2023-05-13T10:32:03.448Z,22.3000
2023-05-13T10:33:05.213Z,22.2988
2023-05-13T10:34:06.885Z,22.3042
2023-05-13T10:35:08.634Z,22.3004
2023-05-13T10:36:10.369Z,22.3077
2023-05-13T10:37:12.090Z,22.3038
2023-05-13T10:38:13.805Z,22.2992
2023-05-13T10:39:15.558Z,22.2954
2023-05-13T10:40:17.321Z,22.2935
2023-05-13T10:41:19.010Z,22.3119
2023-05-13T10:42:20.755Z,22.3177
2023-05-13T10:43:22.481Z,22.3077
2023-05-13T10:44:24.185Z,22.3092
2023-05-13T10:45:25.944Z,22.3208
2023-05-13T10:46:27.697Z,22.3277
2023-05-13T10:47:29.472Z,22.3300
2023-05-13T10:48:31.169Z,22.3327
2023-05-13T10:49:32.850Z,22.3304
2023-05-13T10:50:34.609Z,22.3335
2023-05-13T10:51:36.333Z,22.3350
2023-05-13T10:52:38.038Z,22.3415
2023-05-13T10:53:39.775Z,22.3365
2023-05-13T10:54:41.523Z,22.3454
2023-05-13T10:55:43.234Z,22.3500
2023-05-13T10:56:44.968Z,22.3462
2023-05-13T10:57:46.715Z,22.3431
2023-05-13T10:58:48.432Z,22.3542
2023-05-13T10:59:50.160Z,22.3508
2023-05-13T11:00:51.886Z,22.3504
2023-05-13T11:01:53.695Z,22.3515
2023-05-13T11:02:55.443Z,22.3485
2023-05-13T11:03:57.246Z,22.3438
2023-05-13T11:04:58.844Z,22.3465
2023-05-13T11:06:00.570Z,22.3465
2023-05-13T11:07:02.274Z,22.3488
2023-05-13T11:08:04.018Z,22.3565
2023-05-13T11:09:05.752Z,22.3600
2023-05-13T11:10:07.483Z,22.3615
2023-05-13T11:11:09.207Z,22.3527
2023-05-13T11:12:10.954Z,22.3542
2023-05-13T11:13:12.670Z,22.3635
2023-05-13T11:14:14.392Z,22.3692
2023-05-13T11:15:16.140Z,22.3646
2023-05-13T11:16:17.898Z,22.3669
2023-05-13T11:17:19.580Z,22.3608
2023-05-13T11:18:21.330Z,22.3635
2023-05-13T11:19:23.057Z,22.3692
2023-05-13T11:20:24.773Z,22.3696
2023-05-13T11:21:26.540Z,22.3677
2023-05-13T11:22:28.256Z,22.3627
2023-05-13T11:23:29.977Z,22.3731
2023-05-13T11:24:31.697Z,22.3677
2023-05-13T11:25:33.449Z,22.3735
2023-05-13T11:26:35.184Z,22.3762
2023-05-13T11:27:36.893Z,22.3808
2023-05-13T11:28:38.642Z,22.3738
2023-05-13T11:29:40.359Z,22.3785
2023-05-13T11:30:42.100Z,22.3831
2023-05-13T11:31:44.044Z,22.3862
2023-05-13T11:32:45.590Z,22.3827
2023-05-13T11:33:47.281Z,22.3858
2023-05-13T11:34:49.008Z,22.3842
2023-05-13T11:35:50.752Z,22.3935
2023-05-13T11:36:52.507Z,22.3981
2023-05-13T11:37:54.213Z,22.3965
2023-05-13T11:38:55.945Z,22.3973
2023-05-13T11:39:57.702Z,22.3985
2023-05-13T11:40:59.431Z,22.3977
2023-05-13T11:42:01.152Z,22.3985
2023-05-13T11:43:02.903Z,22.4015
2023-05-13T11:44:04.639Z,22.4042
2023-05-13T11:45:06.333Z,22.3992
2023-05-13T11:46:08.142Z,22.3965
2023-05-13T11:47:09.836Z,22.3954
2023-05-13T11:48:11.549Z,22.3931
2023-05-13T11:49:13.276Z,22.3931
2023-05-13T11:50:15.025Z,22.3954
2023-05-13T11:51:16.749Z,22.3973
2023-05-13T11:52:18.493Z,22.3946
2023-05-13T11:53:20.226Z,22.3965
2023-05-13T11:54:21.925Z,22.3988
2023-05-13T11:55:23.774Z,22.3950
2023-05-13T11:56:25.417Z,22.4019
2023-05-13T11:57:27.141Z,22.4012
2023-05-13T11:58:28.881Z,22.4019
2023-05-13T11:59:38.594Z,22.3992
2023-05-13T12:03:48.558Z,22.3896
2023-05-13T12:04:50.301Z,22.3842
2023-05-13T12:05:52.028Z,22.3792
2023-05-13T12:06:53.765Z,22.3754
2023-05-13T12:07:55.494Z,22.3650
2023-05-13T12:08:57.243Z,22.3631
2023-05-13T12:09:58.989Z,22.3719
2023-05-13T12:11:00.697Z,22.3692
2023-05-13T12:12:02.451Z,22.3685
2023-05-13T12:13:04.190Z,22.3731
2023-05-13T12:14:05.900Z,22.3831
2023-05-13T12:15:07.665Z,22.3869
2023-05-13T12:16:09.433Z,22.3792
2023-05-13T12:17:11.116Z,22.3877
2023-05-13T12:18:12.880Z,22.3935
2023-05-13T12:19:14.770Z,22.3927
2023-05-13T12:20:16.315Z,22.3869
2023-05-13T12:21:18.082Z,22.3962
2023-05-13T12:22:19.779Z,22.4027
2023-05-13T12:23:21.537Z,22.4046
2023-05-13T12:24:23.274Z,22.3992
2023-05-13T12:25:24.978Z,22.3992
2023-05-13T12:26:26.713Z,22.4035
2023-05-13T12:27:28.473Z,22.4100
2023-05-13T12:28:30.191Z,22.4088
2023-05-13T12:29:31.921Z,22.4127
2023-05-13T12:30:33.675Z,22.4085
2023-05-13T12:31:35.437Z,22.4062